ITY614 LIRF-KBOS
Flight info
| Callsign | ITY614 |
|---|---|
| Flight time | N/A |
| Altitude | 38000 |
| Route | PODOX DCT TOBGA DCT DOBIM DCT PIGOS DCT BODRU DCT KOTIT DCT ETREK DCT NOQAS DCT LERGA DCT FOUCO DCT MANAK UY110 TIRAV UT183 BAGAD DCT ALUTA DCT TAKAS/M084F380 DCT ODANU DCT RODEL/M084F390 DCT 51N020W 51N030W 5030N04000W 48N050W DCT NICSO/N0474F400 N258B TUSKY DCT EURRO OOSHN5 |
| Aircraft | A359/H-SDE2E3GHIJ3J4J5LM1ORWXY/LB1D1 |
Departure
| Time | 2026-05-06 06:49 |
|---|---|
| Airport | Rome–Fiumicino Leonardo da Vinci International Airport (LIRF) |
Arrival
| Time | N/A |
|---|---|
| Airport | Boston Logan International Airport (KBOS) |
| Time | Latitude | Longitude | Altitude | Speed | Heading |
|---|---|---|---|---|---|
| 2026-05-06 06:14 | 41.79848 | 12.24653 | 22 ft | 0 kts | 160° |
| 2026-05-06 06:20 | 41.79840 | 12.24658 | 20 ft | 4 kts | 160° |
| 2026-05-06 06:20 | 41.79829 | 12.24663 | 20 ft | 3 kts | 160° |
| 2026-05-06 06:21 | 41.79854 | 12.24651 | 24 ft | 4 kts | 160° |
| 2026-05-06 06:21 | 41.79879 | 12.24638 | 23 ft | 4 kts | 160° |
| 2026-05-06 06:21 | 41.79899 | 12.24628 | 23 ft | 4 kts | 162° |
| 2026-05-06 06:21 | 41.79925 | 12.24621 | 20 ft | 4 kts | 185° |
| 2026-05-06 06:22 | 41.79949 | 12.24631 | 23 ft | 4 kts | 224° |
| 2026-05-06 06:22 | 41.79959 | 12.24645 | 20 ft | 4 kts | 250° |
| 2026-05-06 06:22 | 41.79952 | 12.24625 | 22 ft | 2 kts | 250° |
| 2026-05-06 06:22 | 41.79946 | 12.24601 | 20 ft | 0 kts | 250° |
| 2026-05-06 06:24 | 41.79946 | 12.24600 | 20 ft | 0 kts | 250° |
| 2026-05-06 06:25 | 41.79851 | 12.24652 | 21 ft | 0 kts | 160° |
| 2026-05-06 06:25 | 41.79848 | 12.24653 | 20 ft | 0 kts | 160° |
| 2026-05-06 06:35 | 41.79851 | 12.24652 | 20 ft | 3 kts | 160° |
| 2026-05-06 06:36 | 41.79876 | 12.24640 | 22 ft | 4 kts | 160° |
| 2026-05-06 06:36 | 41.79897 | 12.24630 | 20 ft | 4 kts | 160° |
| 2026-05-06 06:36 | 41.79923 | 12.24621 | 20 ft | 4 kts | 181° |
| 2026-05-06 06:36 | 41.79947 | 12.24629 | 20 ft | 4 kts | 219° |
| 2026-05-06 06:37 | 41.79959 | 12.24649 | 20 ft | 0 kts | 250° |
| 2026-05-06 06:37 | 41.79952 | 12.24624 | 22 ft | 0 kts | 250° |
| 2026-05-06 06:41 | 41.79946 | 12.24606 | 21 ft | 8 kts | 247° |
| 2026-05-06 06:41 | 41.79912 | 12.24490 | 25 ft | 18 kts | 251° |
| 2026-05-06 06:41 | 41.79846 | 12.24365 | 23 ft | 16 kts | 233° |
| 2026-05-06 06:42 | 41.79796 | 12.24228 | 23 ft | 16 kts | 245° |
| 2026-05-06 06:42 | 41.79750 | 12.24086 | 22 ft | 16 kts | 252° |
| 2026-05-06 06:42 | 41.79720 | 12.23945 | 23 ft | 16 kts | 252° |
| 2026-05-06 06:42 | 41.79688 | 12.23802 | 20 ft | 16 kts | 272° |
| 2026-05-06 06:43 | 41.79764 | 12.23718 | 22 ft | 15 kts | 341° |
| 2026-05-06 06:43 | 41.79866 | 12.23674 | 21 ft | 16 kts | 341° |
| 2026-05-06 06:43 | 41.79969 | 12.23629 | 22 ft | 16 kts | 343° |
| 2026-05-06 06:43 | 41.80067 | 12.23589 | 25 ft | 15 kts | 343° |
| 2026-05-06 06:44 | 41.80178 | 12.23543 | 24 ft | 17 kts | 343° |
| 2026-05-06 06:44 | 41.80294 | 12.23493 | 23 ft | 18 kts | 342° |
| 2026-05-06 06:44 | 41.80414 | 12.23443 | 25 ft | 18 kts | 343° |
| 2026-05-06 06:44 | 41.80537 | 12.23391 | 21 ft | 19 kts | 342° |
| 2026-05-06 06:45 | 41.80664 | 12.23338 | 25 ft | 19 kts | 343° |
| 2026-05-06 06:45 | 41.80795 | 12.23284 | 25 ft | 20 kts | 342° |
| 2026-05-06 06:45 | 41.80929 | 12.23227 | 21 ft | 21 kts | 342° |
| 2026-05-06 06:45 | 41.81069 | 12.23172 | 24 ft | 21 kts | 343° |
| 2026-05-06 06:46 | 41.81212 | 12.23111 | 25 ft | 22 kts | 342° |
| 2026-05-06 06:46 | 41.81358 | 12.23050 | 24 ft | 22 kts | 342° |
| 2026-05-06 06:46 | 41.81499 | 12.22968 | 24 ft | 22 kts | 315° |
| 2026-05-06 06:46 | 41.81565 | 12.22819 | 23 ft | 17 kts | 291° |
| 2026-05-06 06:47 | 41.81537 | 12.22683 | 24 ft | 16 kts | 229° |
| 2026-05-06 06:47 | 41.81452 | 12.22680 | 23 ft | 6 kts | 163° |
| 2026-05-06 06:47 | 41.81449 | 12.22681 | 20 ft | 0 kts | 163° |
| 2026-05-06 06:48 | 41.81277 | 12.22751 | 22 ft | 59 kts | 162° |
| 2026-05-06 06:48 | 41.80684 | 12.23000 | 24 ft | 118 kts | 162° |
| 2026-05-06 06:48 | 41.79731 | 12.23400 | 24 ft | 168 kts | 163° |
| 2026-05-06 06:48 | 41.78552 | 12.23851 | 464 ft | 178 kts | 165° |
| 2026-05-06 06:49 | 41.77329 | 12.24236 | 1107 ft | 183 kts | 168° |
| 2026-05-06 06:49 | 41.76069 | 12.24519 | 1716 ft | 188 kts | 175° |
| 2026-05-06 06:49 | 41.74732 | 12.24280 | 2146 ft | 201 kts | 200° |
| 2026-05-06 06:49 | 41.73559 | 12.23287 | 2736 ft | 205 kts | 223° |
| 2026-05-06 06:50 | 41.72578 | 12.21893 | 3362 ft | 206 kts | 229° |
| 2026-05-06 06:50 | 41.71635 | 12.20431 | 3922 ft | 209 kts | 229° |
| 2026-05-06 06:50 | 41.70683 | 12.18937 | 4478 ft | 212 kts | 230° |
| 2026-05-06 06:50 | 41.69890 | 12.17272 | 5077 ft | 213 kts | 245° |
| 2026-05-06 06:51 | 41.69527 | 12.15351 | 5646 ft | 215 kts | 265° |
| 2026-05-06 06:51 | 41.69672 | 12.13350 | 5940 ft | 218 kts | 283° |
| 2026-05-06 06:51 | 41.70078 | 12.11387 | 6139 ft | 221 kts | 286° |
| 2026-05-06 06:51 | 41.70525 | 12.09405 | 6634 ft | 224 kts | 286° |
| 2026-05-06 06:52 | 41.70968 | 12.07410 | 7292 ft | 224 kts | 285° |
| 2026-05-06 06:52 | 41.71394 | 12.05396 | 7873 ft | 228 kts | 283° |
| 2026-05-06 06:52 | 41.71731 | 12.03233 | 8134 ft | 249 kts | 280° |
| 2026-05-06 06:52 | 41.72065 | 12.00860 | 8429 ft | 270 kts | 279° |
| 2026-05-06 06:53 | 41.72401 | 11.98326 | 8910 ft | 282 kts | 278° |
| 2026-05-06 06:53 | 41.72743 | 11.95714 | 9582 ft | 286 kts | 278° |
| 2026-05-06 06:53 | 41.73082 | 11.93105 | 10280 ft | 291 kts | 278° |
| 2026-05-06 06:53 | 41.73437 | 11.90356 | 10663 ft | 308 kts | 278° |
| 2026-05-06 06:54 | 41.73810 | 11.87451 | 10994 ft | 326 kts | 278° |
| 2026-05-06 06:54 | 41.74205 | 11.84378 | 11338 ft | 342 kts | 278° |
| 2026-05-06 06:54 | 41.74612 | 11.81208 | 11920 ft | 349 kts | 278° |
| 2026-05-06 06:54 | 41.75025 | 11.77991 | 12611 ft | 352 kts | 278° |
| 2026-05-06 06:55 | 41.75440 | 11.74745 | 13294 ft | 355 kts | 278° |
| 2026-05-06 06:55 | 41.75857 | 11.71475 | 13967 ft | 358 kts | 278° |
| 2026-05-06 06:55 | 41.76277 | 11.68167 | 14618 ft | 362 kts | 278° |
| 2026-05-06 06:55 | 41.76700 | 11.64828 | 15248 ft | 365 kts | 278° |
| 2026-05-06 06:56 | 41.77126 | 11.61464 | 15871 ft | 368 kts | 278° |
| 2026-05-06 06:56 | 41.77554 | 11.58065 | 16485 ft | 371 kts | 278° |
| 2026-05-06 06:56 | 41.77985 | 11.54639 | 17074 ft | 374 kts | 278° |
| 2026-05-06 06:56 | 41.78418 | 11.51190 | 17653 ft | 377 kts | 278° |
| 2026-05-06 06:57 | 41.78854 | 11.47708 | 18247 ft | 380 kts | 278° |
| 2026-05-06 06:57 | 41.79292 | 11.44200 | 18813 ft | 383 kts | 278° |
| 2026-05-06 06:57 | 41.79733 | 11.40660 | 19386 ft | 387 kts | 278° |
| 2026-05-06 06:57 | 41.80200 | 11.37147 | 19941 ft | 390 kts | 281° |
| 2026-05-06 06:58 | 41.81122 | 11.33706 | 20493 ft | 397 kts | 296° |
| 2026-05-06 06:58 | 41.82708 | 11.30648 | 21057 ft | 402 kts | 307° |
| 2026-05-06 06:58 | 41.84503 | 11.27756 | 21599 ft | 406 kts | 308° |
| 2026-05-06 06:58 | 41.86337 | 11.24853 | 22116 ft | 409 kts | 308° |
| 2026-05-06 06:59 | 41.88176 | 11.21928 | 22647 ft | 412 kts | 308° |
| 2026-05-06 06:59 | 41.90030 | 11.18964 | 23153 ft | 415 kts | 308° |
| 2026-05-06 06:59 | 41.91887 | 11.15983 | 23643 ft | 418 kts | 308° |
| 2026-05-06 06:59 | 41.93757 | 11.12975 | 24130 ft | 421 kts | 308° |
| 2026-05-06 07:00 | 41.95638 | 11.09944 | 24605 ft | 424 kts | 308° |
| 2026-05-06 07:00 | 41.97532 | 11.06888 | 25061 ft | 427 kts | 307° |
| 2026-05-06 07:00 | 41.99442 | 11.03802 | 25531 ft | 430 kts | 307° |
| 2026-05-06 07:00 | 42.01359 | 11.00699 | 25982 ft | 433 kts | 307° |
| 2026-05-06 07:01 | 42.03286 | 10.97579 | 26402 ft | 435 kts | 307° |
| 2026-05-06 07:01 | 42.05226 | 10.94432 | 26877 ft | 438 kts | 307° |
| 2026-05-06 07:01 | 42.07178 | 10.91265 | 27295 ft | 440 kts | 307° |
| 2026-05-06 07:01 | 42.09110 | 10.88124 | 27699 ft | 443 kts | 307° |
| 2026-05-06 07:02 | 42.11085 | 10.84912 | 28109 ft | 445 kts | 307° |
| 2026-05-06 07:02 | 42.13064 | 10.81689 | 28515 ft | 448 kts | 307° |
| 2026-05-06 07:02 | 42.15051 | 10.78450 | 28906 ft | 450 kts | 307° |
| 2026-05-06 07:02 | 42.17050 | 10.75189 | 29283 ft | 452 kts | 307° |
| 2026-05-06 07:03 | 42.19056 | 10.71911 | 29655 ft | 454 kts | 306° |
| 2026-05-06 07:03 | 42.21069 | 10.68619 | 30012 ft | 456 kts | 306° |
| 2026-05-06 07:03 | 42.23093 | 10.65304 | 30354 ft | 459 kts | 306° |
| 2026-05-06 07:03 | 42.25126 | 10.61973 | 30684 ft | 461 kts | 306° |
| 2026-05-06 07:04 | 42.27207 | 10.58665 | 30994 ft | 464 kts | 309° |
| 2026-05-06 07:04 | 42.29517 | 10.55590 | 31285 ft | 468 kts | 314° |
| 2026-05-06 07:04 | 42.31957 | 10.52653 | 31597 ft | 471 kts | 316° |
| 2026-05-06 07:04 | 42.34464 | 10.49783 | 31874 ft | 474 kts | 317° |
| 2026-05-06 07:05 | 42.37008 | 10.46926 | 32146 ft | 476 kts | 317° |
| 2026-05-06 07:05 | 42.39560 | 10.44062 | 32413 ft | 477 kts | 317° |
| 2026-05-06 07:05 | 42.42115 | 10.41178 | 32663 ft | 479 kts | 317° |
| 2026-05-06 07:05 | 42.44672 | 10.38269 | 32915 ft | 481 kts | 316° |
| 2026-05-06 07:06 | 42.47231 | 10.35338 | 33136 ft | 482 kts | 316° |
| 2026-05-06 07:06 | 42.49757 | 10.32432 | 33342 ft | 484 kts | 316° |
| 2026-05-06 07:06 | 42.52325 | 10.29468 | 33639 ft | 484 kts | 316° |
| 2026-05-06 07:06 | 42.54879 | 10.26519 | 33975 ft | 482 kts | 316° |
| 2026-05-06 07:07 | 42.57431 | 10.23566 | 34282 ft | 481 kts | 316° |
| 2026-05-06 07:07 | 42.59978 | 10.20617 | 34583 ft | 481 kts | 316° |
| 2026-05-06 07:07 | 42.62517 | 10.17673 | 34844 ft | 480 kts | 316° |
| 2026-05-06 07:07 | 42.65056 | 10.14728 | 35107 ft | 480 kts | 316° |
| 2026-05-06 07:08 | 42.67591 | 10.11783 | 35364 ft | 479 kts | 316° |
| 2026-05-06 07:08 | 42.70121 | 10.08840 | 35600 ft | 479 kts | 316° |
| 2026-05-06 07:08 | 42.72656 | 10.05889 | 35813 ft | 479 kts | 316° |
| 2026-05-06 07:08 | 42.75186 | 10.02941 | 36026 ft | 479 kts | 316° |
| 2026-05-06 07:09 | 42.77712 | 9.99994 | 36240 ft | 479 kts | 316° |
| 2026-05-06 07:09 | 42.80242 | 9.97039 | 36442 ft | 478 kts | 316° |
| 2026-05-06 07:09 | 42.82771 | 9.94081 | 36612 ft | 479 kts | 316° |
| 2026-05-06 07:09 | 42.84443 | 9.92125 | 36733 ft | 479 kts | 316° |
| 2026-05-06 07:10 | 42.86960 | 9.89159 | 36982 ft | 476 kts | 315° |
| 2026-05-06 07:10 | 42.89266 | 9.85972 | 37283 ft | 469 kts | 307° |
| 2026-05-06 07:10 | 42.91305 | 9.82527 | 37529 ft | 465 kts | 304° |
| 2026-05-06 07:10 | 42.93268 | 9.79022 | 37688 ft | 465 kts | 303° |
| 2026-05-06 07:11 | 42.95033 | 9.75349 | 37822 ft | 461 kts | 296° |
| 2026-05-06 07:11 | 42.97692 | 9.67380 | 37900 ft | 463 kts | 289° |
| 2026-05-06 07:12 | 43.00084 | 9.59225 | 37890 ft | 462 kts | 288° |
| 2026-05-06 07:12 | 43.02433 | 9.51062 | 37890 ft | 462 kts | 288° |
| 2026-05-06 07:13 | 43.04795 | 9.42894 | 37886 ft | 462 kts | 289° |
| 2026-05-06 07:13 | 43.07164 | 9.34724 | 37886 ft | 462 kts | 289° |
| 2026-05-06 07:14 | 43.09517 | 9.26602 | 37887 ft | 462 kts | 288° |
| 2026-05-06 07:14 | 43.11891 | 9.18375 | 37895 ft | 462 kts | 288° |
| 2026-05-06 07:15 | 43.14231 | 9.10240 | 37898 ft | 462 kts | 288° |
| 2026-05-06 07:15 | 43.16580 | 9.02044 | 37897 ft | 462 kts | 288° |
| 2026-05-06 07:16 | 43.18923 | 8.93841 | 37901 ft | 462 kts | 288° |
| 2026-05-06 07:16 | 43.21263 | 8.85622 | 37898 ft | 463 kts | 288° |
| 2026-05-06 07:17 | 43.23596 | 8.77403 | 37892 ft | 463 kts | 288° |
| 2026-05-06 07:17 | 43.25924 | 8.69175 | 37888 ft | 463 kts | 288° |
| 2026-05-06 07:18 | 43.28248 | 8.60930 | 37885 ft | 463 kts | 288° |
| 2026-05-06 07:18 | 43.30567 | 8.52679 | 37886 ft | 463 kts | 288° |
| 2026-05-06 07:19 | 43.32879 | 8.44424 | 37882 ft | 463 kts | 288° |
| 2026-05-06 07:19 | 43.35184 | 8.36165 | 37890 ft | 463 kts | 288° |
| 2026-05-06 07:20 | 43.37486 | 8.27894 | 37887 ft | 463 kts | 288° |
| 2026-05-06 07:20 | 43.39765 | 8.19672 | 37891 ft | 463 kts | 287° |
| 2026-05-06 07:21 | 43.42055 | 8.11387 | 37878 ft | 463 kts | 287° |
| 2026-05-06 07:21 | 43.44340 | 8.03093 | 37885 ft | 463 kts | 287° |
| 2026-05-06 07:22 | 43.46618 | 7.94794 | 37888 ft | 463 kts | 287° |
| 2026-05-06 07:22 | 43.48892 | 7.86481 | 37887 ft | 464 kts | 287° |
| 2026-05-06 07:23 | 43.51147 | 7.78208 | 37892 ft | 464 kts | 287° |
| 2026-05-06 07:23 | 43.53409 | 7.69885 | 37886 ft | 464 kts | 287° |
| 2026-05-06 07:24 | 43.55665 | 7.61554 | 37890 ft | 464 kts | 287° |
| 2026-05-06 07:24 | 43.57915 | 7.53217 | 37890 ft | 464 kts | 287° |
| 2026-05-06 07:25 | 43.60160 | 7.44869 | 37881 ft | 464 kts | 287° |
| 2026-05-06 07:25 | 43.62832 | 7.36742 | 37883 ft | 469 kts | 298° |
| 2026-05-06 07:26 | 43.66756 | 7.29479 | 37887 ft | 473 kts | 305° |
| 2026-05-06 07:26 | 43.70951 | 7.22448 | 37883 ft | 474 kts | 306° |
| 2026-05-06 07:27 | 43.75177 | 7.15450 | 37889 ft | 474 kts | 306° |
| 2026-05-06 07:27 | 43.79357 | 7.08469 | 37885 ft | 474 kts | 306° |
| 2026-05-06 07:28 | 43.83550 | 7.01414 | 37867 ft | 474 kts | 306° |
| 2026-05-06 07:28 | 43.89832 | 6.90800 | 37882 ft | 474 kts | 306° |
| 2026-05-06 07:29 | 43.94014 | 6.83712 | 37885 ft | 475 kts | 306° |
| 2026-05-06 07:29 | 43.98195 | 6.76609 | 37892 ft | 475 kts | 306° |
| 2026-05-06 07:30 | 44.02370 | 6.69499 | 37886 ft | 475 kts | 306° |
| 2026-05-06 07:30 | 44.06544 | 6.62377 | 37885 ft | 476 kts | 306° |
| 2026-05-06 07:31 | 44.10725 | 6.55225 | 37883 ft | 476 kts | 306° |
| 2026-05-06 07:31 | 44.14899 | 6.48062 | 37888 ft | 477 kts | 305° |
| 2026-05-06 07:32 | 44.19072 | 6.40886 | 37885 ft | 477 kts | 305° |
| 2026-05-06 07:32 | 44.23215 | 6.33747 | 37889 ft | 477 kts | 305° |
| 2026-05-06 07:33 | 44.27384 | 6.26543 | 37892 ft | 477 kts | 305° |
| 2026-05-06 07:33 | 44.31541 | 6.19340 | 37891 ft | 477 kts | 305° |
| 2026-05-06 07:34 | 44.35693 | 6.12132 | 37899 ft | 476 kts | 305° |
| 2026-05-06 07:34 | 44.39844 | 6.04905 | 37898 ft | 476 kts | 305° |
| 2026-05-06 07:35 | 44.43991 | 5.97666 | 37907 ft | 477 kts | 305° |
| 2026-05-06 07:35 | 44.48141 | 5.90405 | 37905 ft | 477 kts | 305° |
| 2026-05-06 07:36 | 44.52264 | 5.83175 | 37908 ft | 478 kts | 305° |
| 2026-05-06 07:36 | 44.56409 | 5.75885 | 37906 ft | 478 kts | 305° |
| 2026-05-06 07:37 | 44.60555 | 5.68577 | 37907 ft | 479 kts | 305° |
| 2026-05-06 07:37 | 44.64700 | 5.61259 | 37907 ft | 479 kts | 305° |
| 2026-05-06 07:38 | 44.68838 | 5.53919 | 37907 ft | 479 kts | 305° |
| 2026-05-06 07:38 | 44.72977 | 5.46558 | 37908 ft | 480 kts | 305° |
| 2026-05-06 07:39 | 44.77116 | 5.39182 | 37905 ft | 480 kts | 305° |
| 2026-05-06 07:39 | 44.81259 | 5.31781 | 37907 ft | 481 kts | 305° |
| 2026-05-06 07:40 | 44.85395 | 5.24374 | 37908 ft | 481 kts | 305° |
| 2026-05-06 07:40 | 44.89527 | 5.16954 | 37906 ft | 481 kts | 305° |
| 2026-05-06 07:41 | 44.93636 | 5.09559 | 37905 ft | 481 kts | 305° |
| 2026-05-06 07:41 | 44.97769 | 5.02100 | 37907 ft | 482 kts | 305° |
| 2026-05-06 07:42 | 45.01896 | 4.94631 | 37907 ft | 482 kts | 305° |
| 2026-05-06 07:42 | 45.06020 | 4.87147 | 37906 ft | 482 kts | 305° |
| 2026-05-06 07:43 | 45.10141 | 4.79651 | 37906 ft | 483 kts | 305° |
| 2026-05-06 07:43 | 45.14258 | 4.72141 | 37906 ft | 483 kts | 305° |
| 2026-05-06 07:44 | 45.17766 | 4.64101 | 37916 ft | 478 kts | 291° |
| 2026-05-06 07:44 | 45.19487 | 4.55149 | 37917 ft | 473 kts | 276° |
| 2026-05-06 07:45 | 45.20329 | 4.45895 | 37915 ft | 473 kts | 274° |
| 2026-05-06 07:45 | 45.21027 | 4.36609 | 37916 ft | 474 kts | 274° |
| 2026-05-06 07:46 | 45.21729 | 4.27321 | 37917 ft | 474 kts | 274° |
| 2026-05-06 07:46 | 45.22455 | 4.18011 | 37905 ft | 474 kts | 274° |
| 2026-05-06 07:47 | 45.23179 | 4.08707 | 37907 ft | 475 kts | 274° |
| 2026-05-06 07:47 | 45.23895 | 3.99400 | 37906 ft | 475 kts | 274° |
| 2026-05-06 07:48 | 45.24605 | 3.90077 | 37906 ft | 476 kts | 274° |
| 2026-05-06 07:48 | 45.25305 | 3.80787 | 37906 ft | 477 kts | 274° |
| 2026-05-06 07:49 | 45.26360 | 3.71488 | 37907 ft | 478 kts | 280° |
| 2026-05-06 07:49 | 45.27837 | 3.62277 | 37906 ft | 479 kts | 281° |
| 2026-05-06 07:50 | 45.29377 | 3.53073 | 37907 ft | 479 kts | 281° |
| 2026-05-06 07:50 | 45.30912 | 3.43871 | 37907 ft | 479 kts | 281° |
| 2026-05-06 07:51 | 45.32432 | 3.34660 | 37907 ft | 479 kts | 281° |
| 2026-05-06 07:51 | 45.33941 | 3.25429 | 37900 ft | 479 kts | 281° |
| 2026-05-06 07:52 | 45.35443 | 3.16189 | 37897 ft | 479 kts | 281° |
| 2026-05-06 07:52 | 45.36927 | 3.07016 | 37899 ft | 479 kts | 281° |
| 2026-05-06 07:53 | 45.38413 | 2.97770 | 37897 ft | 479 kts | 281° |
| 2026-05-06 07:53 | 45.39892 | 2.88522 | 37895 ft | 479 kts | 281° |
| 2026-05-06 07:54 | 45.41365 | 2.79254 | 37905 ft | 480 kts | 281° |
| 2026-05-06 07:54 | 45.42832 | 2.69976 | 37907 ft | 480 kts | 281° |
| 2026-05-06 07:55 | 45.44291 | 2.60705 | 37907 ft | 480 kts | 281° |
| 2026-05-06 07:55 | 45.45744 | 2.51409 | 37906 ft | 481 kts | 281° |
| 2026-05-06 07:56 | 45.47192 | 2.42098 | 37906 ft | 481 kts | 281° |
| 2026-05-06 07:56 | 45.48633 | 2.32770 | 37907 ft | 482 kts | 281° |
| 2026-05-06 07:57 | 45.49823 | 2.25034 | 37906 ft | 482 kts | 281° |
| 2026-05-06 07:57 | 45.51482 | 2.14180 | 37907 ft | 482 kts | 281° |
| 2026-05-06 07:58 | 45.52903 | 2.04826 | 37906 ft | 482 kts | 281° |
| 2026-05-06 07:58 | 45.54089 | 1.96981 | 37907 ft | 483 kts | 281° |
| 2026-05-06 07:59 | 45.55488 | 1.87664 | 37906 ft | 483 kts | 281° |
| 2026-05-06 07:59 | 45.56888 | 1.78292 | 37900 ft | 483 kts | 281° |
| 2026-05-06 08:00 | 45.58282 | 1.68906 | 37899 ft | 483 kts | 281° |
| 2026-05-06 08:00 | 45.59667 | 1.59524 | 37897 ft | 483 kts | 281° |
| 2026-05-06 08:01 | 45.61045 | 1.50128 | 37898 ft | 483 kts | 281° |
| 2026-05-06 08:01 | 45.62414 | 1.40744 | 37894 ft | 483 kts | 281° |
| 2026-05-06 08:02 | 45.63774 | 1.31354 | 37889 ft | 483 kts | 281° |
| 2026-05-06 08:02 | 45.65128 | 1.21951 | 37887 ft | 482 kts | 281° |
| 2026-05-06 08:03 | 45.66473 | 1.12560 | 37891 ft | 482 kts | 280° |
| 2026-05-06 08:03 | 45.67809 | 1.03163 | 37885 ft | 482 kts | 280° |
| 2026-05-06 08:04 | 45.69129 | 0.93830 | 37890 ft | 482 kts | 280° |
| 2026-05-06 08:04 | 45.70449 | 0.84430 | 37887 ft | 482 kts | 280° |
| 2026-05-06 08:05 | 45.71763 | 0.75021 | 37887 ft | 482 kts | 280° |
| 2026-05-06 08:05 | 45.73069 | 0.65606 | 37888 ft | 482 kts | 280° |
| 2026-05-06 08:06 | 45.74368 | 0.56180 | 37883 ft | 483 kts | 280° |
| 2026-05-06 08:06 | 45.76033 | 0.46895 | 37889 ft | 484 kts | 291° |
| 2026-05-06 08:07 | 45.78736 | 0.38053 | 37889 ft | 484 kts | 294° |
| 2026-05-06 08:07 | 45.81616 | 0.29328 | 37888 ft | 485 kts | 295° |
| 2026-05-06 08:08 | 45.84519 | 0.20597 | 37888 ft | 485 kts | 294° |
| 2026-05-06 08:08 | 45.87395 | 0.11856 | 37889 ft | 485 kts | 294° |
| 2026-05-06 08:09 | 45.90242 | 0.03136 | 37884 ft | 485 kts | 294° |
| 2026-05-06 08:09 | 45.93097 | -0.05651 | 37884 ft | 485 kts | 294° |
| 2026-05-06 08:10 | 45.95934 | -0.14410 | 37889 ft | 483 kts | 294° |
| 2026-05-06 08:10 | 45.98763 | -0.23170 | 37890 ft | 483 kts | 294° |
| 2026-05-06 08:11 | 46.01581 | -0.31928 | 37885 ft | 482 kts | 295° |
| 2026-05-06 08:11 | 46.04400 | -0.40716 | 37890 ft | 483 kts | 295° |
| 2026-05-06 08:12 | 46.07211 | -0.49511 | 37899 ft | 484 kts | 295° |
| 2026-05-06 08:12 | 46.09999 | -0.58263 | 37900 ft | 484 kts | 294° |
| 2026-05-06 08:13 | 46.12798 | -0.67080 | 37897 ft | 484 kts | 294° |
| 2026-05-06 08:13 | 46.15592 | -0.75911 | 37905 ft | 484 kts | 294° |
| 2026-05-06 08:14 | 46.18375 | -0.84738 | 37906 ft | 483 kts | 294° |
| 2026-05-06 08:14 | 46.21661 | -0.93181 | 37905 ft | 483 kts | 307° |
| 2026-05-06 08:15 | 46.26390 | -1.00058 | 37905 ft | 483 kts | 319° |
| 2026-05-06 08:15 | 46.31607 | -1.06211 | 37907 ft | 484 kts | 321° |
| 2026-05-06 08:16 | 46.36897 | -1.12262 | 37907 ft | 484 kts | 321° |
| 2026-05-06 08:16 | 46.42167 | -1.18335 | 37907 ft | 484 kts | 321° |
| 2026-05-06 08:17 | 46.47420 | -1.24447 | 37906 ft | 484 kts | 321° |
| 2026-05-06 08:17 | 46.52628 | -1.30540 | 37906 ft | 484 kts | 321° |
| 2026-05-06 08:18 | 46.57870 | -1.36690 | 37916 ft | 484 kts | 321° |
| 2026-05-06 08:18 | 46.62757 | -1.43407 | 37916 ft | 484 kts | 314° |
| 2026-05-06 08:19 | 46.67450 | -1.50438 | 37915 ft | 484 kts | 314° |
| 2026-05-06 08:19 | 46.72102 | -1.57526 | 37917 ft | 484 kts | 313° |
| 2026-05-06 08:20 | 46.76754 | -1.64629 | 37916 ft | 484 kts | 313° |
| 2026-05-06 08:20 | 46.81406 | -1.71733 | 37921 ft | 484 kts | 313° |
| 2026-05-06 08:21 | 46.86060 | -1.78853 | 37927 ft | 484 kts | 313° |
| 2026-05-06 08:21 | 46.90703 | -1.85973 | 37925 ft | 484 kts | 313° |
| 2026-05-06 08:22 | 46.95343 | -1.93110 | 37933 ft | 484 kts | 313° |
| 2026-05-06 08:22 | 46.99979 | -2.00259 | 37936 ft | 484 kts | 313° |
| 2026-05-06 08:23 | 47.04651 | -2.07352 | 37934 ft | 483 kts | 314° |
| 2026-05-06 08:23 | 47.09366 | -2.14301 | 37934 ft | 483 kts | 315° |
| 2026-05-06 08:24 | 47.14108 | -2.21307 | 37937 ft | 483 kts | 315° |
| 2026-05-06 08:24 | 47.18829 | -2.28337 | 37931 ft | 483 kts | 314° |
| 2026-05-06 08:25 | 47.23542 | -2.35393 | 37933 ft | 483 kts | 314° |
| 2026-05-06 08:25 | 47.28250 | -2.42465 | 37932 ft | 483 kts | 314° |
| 2026-05-06 08:26 | 47.32954 | -2.49546 | 37932 ft | 483 kts | 314° |
| 2026-05-06 08:26 | 47.37650 | -2.56635 | 37939 ft | 483 kts | 314° |
| 2026-05-06 08:27 | 47.42341 | -2.63735 | 37944 ft | 483 kts | 314° |
| 2026-05-06 08:27 | 47.47028 | -2.70848 | 37945 ft | 483 kts | 314° |
| 2026-05-06 08:28 | 47.51705 | -2.77966 | 37941 ft | 482 kts | 314° |
| 2026-05-06 08:28 | 47.56351 | -2.85136 | 37941 ft | 482 kts | 311° |
| 2026-05-06 08:29 | 47.60053 | -2.93314 | 37945 ft | 482 kts | 298° |
| 2026-05-06 08:29 | 47.63133 | -3.02150 | 37944 ft | 482 kts | 296° |
| 2026-05-06 08:30 | 47.66095 | -3.11086 | 37945 ft | 482 kts | 296° |
| 2026-05-06 08:30 | 47.69043 | -3.20020 | 37949 ft | 482 kts | 296° |
| 2026-05-06 08:31 | 47.72000 | -3.28951 | 37958 ft | 481 kts | 296° |
| 2026-05-06 08:31 | 47.74956 | -3.37877 | 37972 ft | 481 kts | 296° |
| 2026-05-06 08:32 | 47.77904 | -3.46804 | 37972 ft | 481 kts | 296° |
| 2026-05-06 08:32 | 47.80825 | -3.55683 | 37972 ft | 481 kts | 296° |
| 2026-05-06 08:33 | 47.83754 | -3.64621 | 37963 ft | 480 kts | 296° |
| 2026-05-06 08:33 | 47.86677 | -3.73572 | 37968 ft | 480 kts | 296° |
| 2026-05-06 08:34 | 47.91044 | -3.87002 | 37957 ft | 480 kts | 296° |
| 2026-05-06 08:35 | 47.93946 | -3.95969 | 37972 ft | 480 kts | 296° |
| 2026-05-06 08:35 | 47.96843 | -4.04948 | 37960 ft | 480 kts | 296° |
| 2026-05-06 08:36 | 47.99730 | -4.13929 | 37973 ft | 480 kts | 296° |
| 2026-05-06 08:36 | 48.02610 | -4.22920 | 37979 ft | 480 kts | 296° |
| 2026-05-06 08:37 | 48.05483 | -4.31921 | 37978 ft | 480 kts | 296° |
| 2026-05-06 08:37 | 48.08349 | -4.40935 | 37980 ft | 480 kts | 295° |
| 2026-05-06 08:38 | 48.11188 | -4.49895 | 37980 ft | 480 kts | 295° |
| 2026-05-06 08:38 | 48.14040 | -4.58925 | 37989 ft | 480 kts | 295° |
| 2026-05-06 08:39 | 48.16885 | -4.67967 | 37990 ft | 480 kts | 295° |
| 2026-05-06 08:39 | 48.19722 | -4.77017 | 37990 ft | 479 kts | 295° |
| 2026-05-06 08:40 | 48.22552 | -4.86077 | 37990 ft | 479 kts | 295° |
| 2026-05-06 08:40 | 48.25374 | -4.95142 | 37989 ft | 479 kts | 295° |
| 2026-05-06 08:41 | 48.28185 | -5.04207 | 37988 ft | 479 kts | 295° |
| 2026-05-06 08:41 | 48.30987 | -5.13275 | 37980 ft | 479 kts | 295° |
| 2026-05-06 08:42 | 48.33784 | -5.22363 | 37989 ft | 479 kts | 295° |
| 2026-05-06 08:42 | 48.36554 | -5.31393 | 37998 ft | 479 kts | 295° |
| 2026-05-06 08:43 | 48.39337 | -5.40498 | 37999 ft | 479 kts | 295° |
| 2026-05-06 08:43 | 48.42108 | -5.49598 | 37999 ft | 478 kts | 295° |
| 2026-05-06 08:44 | 48.44873 | -5.58711 | 37999 ft | 478 kts | 295° |
| 2026-05-06 08:44 | 48.47630 | -5.67835 | 37991 ft | 478 kts | 295° |
| 2026-05-06 08:45 | 48.50381 | -5.76971 | 37989 ft | 478 kts | 295° |
| 2026-05-06 08:45 | 48.52663 | -5.84573 | 38007 ft | 478 kts | 295° |
| 2026-05-06 08:46 | 48.55399 | -5.93720 | 38008 ft | 478 kts | 295° |
| 2026-05-06 08:46 | 48.58129 | -6.02884 | 38008 ft | 478 kts | 294° |
| 2026-05-06 08:47 | 48.60851 | -6.12052 | 38008 ft | 478 kts | 294° |
| 2026-05-06 08:47 | 48.63561 | -6.21216 | 38008 ft | 477 kts | 294° |
| 2026-05-06 08:48 | 48.66264 | -6.30388 | 38008 ft | 477 kts | 294° |
| 2026-05-06 08:48 | 48.68959 | -6.39568 | 38008 ft | 477 kts | 294° |
| 2026-05-06 08:49 | 48.71627 | -6.48694 | 38008 ft | 477 kts | 294° |
| 2026-05-06 08:49 | 48.74308 | -6.57894 | 38017 ft | 477 kts | 294° |
| 2026-05-06 08:50 | 48.76980 | -6.67102 | 38017 ft | 477 kts | 294° |
| 2026-05-06 08:50 | 48.79645 | -6.76322 | 38017 ft | 477 kts | 294° |
| 2026-05-06 08:51 | 48.82304 | -6.85554 | 38017 ft | 477 kts | 294° |
| 2026-05-06 08:51 | 48.84953 | -6.94787 | 38017 ft | 477 kts | 294° |
| 2026-05-06 08:52 | 48.87596 | -7.04032 | 38019 ft | 477 kts | 294° |
| 2026-05-06 08:52 | 48.90228 | -7.13279 | 38019 ft | 476 kts | 293° |
| 2026-05-06 08:53 | 48.92855 | -7.22540 | 38017 ft | 476 kts | 293° |
| 2026-05-06 08:53 | 48.95454 | -7.31741 | 38017 ft | 476 kts | 293° |
| 2026-05-06 08:54 | 48.98062 | -7.41007 | 38019 ft | 476 kts | 293° |
| 2026-05-06 08:54 | 49.00074 | -7.50588 | 38019 ft | 476 kts | 280° |
| 2026-05-06 08:55 | 49.00480 | -7.60643 | 38017 ft | 477 kts | 270° |
| 2026-05-06 08:55 | 49.00407 | -7.70755 | 38017 ft | 477 kts | 269° |
| 2026-05-06 08:56 | 49.00257 | -7.80845 | 38017 ft | 477 kts | 269° |
| 2026-05-06 08:56 | 49.00118 | -7.90939 | 38017 ft | 477 kts | 269° |
| 2026-05-06 08:57 | 49.00537 | -8.00990 | 38017 ft | 476 kts | 282° |
| 2026-05-06 08:57 | 49.02368 | -8.10657 | 38017 ft | 475 kts | 288° |
| 2026-05-06 08:58 | 49.04508 | -8.20171 | 38017 ft | 475 kts | 289° |
| 2026-05-06 08:58 | 49.06672 | -8.29621 | 38029 ft | 475 kts | 289° |
| 2026-05-06 08:59 | 49.08824 | -8.39154 | 38025 ft | 475 kts | 289° |
| 2026-05-06 08:59 | 49.10952 | -8.48699 | 38025 ft | 475 kts | 289° |
| 2026-05-06 09:00 | 49.13068 | -8.58256 | 38017 ft | 475 kts | 289° |
| 2026-05-06 09:00 | 49.15174 | -8.67816 | 38017 ft | 475 kts | 289° |
| 2026-05-06 09:01 | 49.17275 | -8.77389 | 38017 ft | 475 kts | 289° |
| 2026-05-06 09:01 | 49.19366 | -8.86963 | 38017 ft | 475 kts | 288° |
| 2026-05-06 09:02 | 49.21451 | -8.96550 | 38035 ft | 475 kts | 288° |
| 2026-05-06 09:02 | 49.23526 | -9.06134 | 38036 ft | 475 kts | 288° |
| 2026-05-06 09:03 | 49.25598 | -9.15754 | 38036 ft | 476 kts | 288° |
| 2026-05-06 09:03 | 49.27651 | -9.25325 | 38036 ft | 477 kts | 288° |
| 2026-05-06 09:04 | 49.29711 | -9.34981 | 38036 ft | 477 kts | 288° |
| 2026-05-06 09:04 | 49.31763 | -9.44637 | 38036 ft | 477 kts | 288° |
| 2026-05-06 09:05 | 49.33807 | -9.54310 | 38036 ft | 477 kts | 288° |
| 2026-05-06 09:05 | 49.35842 | -9.63979 | 38036 ft | 477 kts | 288° |
| 2026-05-06 09:06 | 49.37871 | -9.73673 | 38036 ft | 476 kts | 288° |
| 2026-05-06 09:06 | 49.39890 | -9.83360 | 38036 ft | 476 kts | 288° |
| 2026-05-06 09:07 | 49.41898 | -9.93043 | 38036 ft | 476 kts | 288° |
| 2026-05-06 09:07 | 49.43898 | -10.02736 | 38036 ft | 476 kts | 288° |
| 2026-05-06 09:08 | 49.45890 | -10.12435 | 38036 ft | 476 kts | 287° |
| 2026-05-06 09:08 | 49.47873 | -10.22140 | 38036 ft | 476 kts | 287° |
| 2026-05-06 09:09 | 49.49850 | -10.31863 | 38036 ft | 476 kts | 287° |
| 2026-05-06 09:09 | 49.51807 | -10.41530 | 38036 ft | 476 kts | 287° |
| 2026-05-06 09:10 | 49.53767 | -10.51264 | 38036 ft | 476 kts | 287° |
| 2026-05-06 09:10 | 49.55718 | -10.61003 | 38036 ft | 476 kts | 287° |
| 2026-05-06 09:11 | 49.57661 | -10.70752 | 38036 ft | 476 kts | 287° |
| 2026-05-06 09:11 | 49.59597 | -10.80512 | 38036 ft | 476 kts | 287° |
| 2026-05-06 09:12 | 49.61525 | -10.90280 | 38036 ft | 476 kts | 287° |
| 2026-05-06 09:12 | 49.63445 | -11.00057 | 38036 ft | 476 kts | 287° |
| 2026-05-06 09:13 | 49.65357 | -11.09844 | 38036 ft | 477 kts | 287° |
| 2026-05-06 09:13 | 49.67264 | -11.19652 | 38035 ft | 477 kts | 287° |
| 2026-05-06 09:14 | 49.69160 | -11.29460 | 38036 ft | 477 kts | 287° |
| 2026-05-06 09:14 | 49.71039 | -11.39226 | 38045 ft | 477 kts | 287° |
| 2026-05-06 09:15 | 49.72920 | -11.49054 | 38050 ft | 477 kts | 287° |
| 2026-05-06 09:15 | 49.74792 | -11.58887 | 38054 ft | 477 kts | 286° |
| 2026-05-06 09:16 | 49.76658 | -11.68738 | 38054 ft | 477 kts | 286° |
| 2026-05-06 09:16 | 49.78514 | -11.78591 | 38054 ft | 477 kts | 286° |
| 2026-05-06 09:17 | 49.80364 | -11.88464 | 38054 ft | 477 kts | 286° |
| 2026-05-06 09:17 | 49.82206 | -11.98344 | 38054 ft | 478 kts | 286° |
| 2026-05-06 09:18 | 49.84039 | -12.08229 | 38054 ft | 478 kts | 286° |
| 2026-05-06 09:18 | 49.85853 | -12.18059 | 38063 ft | 478 kts | 286° |
| 2026-05-06 09:19 | 49.87669 | -12.27961 | 38063 ft | 478 kts | 286° |
| 2026-05-06 09:19 | 49.89480 | -12.37886 | 38063 ft | 478 kts | 286° |
| 2026-05-06 09:20 | 49.91288 | -12.47801 | 38061 ft | 478 kts | 287° |
| 2026-05-06 09:20 | 49.93521 | -12.57503 | 38063 ft | 478 kts | 290° |
| 2026-05-06 09:21 | 49.95876 | -12.67149 | 38063 ft | 478 kts | 291° |
| 2026-05-06 09:21 | 49.98247 | -12.76790 | 38063 ft | 477 kts | 291° |
| 2026-05-06 09:22 | 50.00605 | -12.86440 | 38063 ft | 477 kts | 291° |
| 2026-05-06 09:22 | 50.02950 | -12.96103 | 38063 ft | 478 kts | 291° |
| 2026-05-06 09:23 | 50.05287 | -13.05788 | 38063 ft | 478 kts | 291° |
| 2026-05-06 09:23 | 50.07614 | -13.15473 | 38063 ft | 478 kts | 291° |
| 2026-05-06 09:24 | 50.09918 | -13.25104 | 38063 ft | 478 kts | 291° |
| 2026-05-06 09:24 | 50.12233 | -13.34821 | 38066 ft | 478 kts | 290° |
| 2026-05-06 09:25 | 50.14543 | -13.44564 | 38063 ft | 478 kts | 290° |
| 2026-05-06 09:25 | 50.16840 | -13.54295 | 38045 ft | 478 kts | 290° |
| 2026-05-06 09:26 | 50.19130 | -13.64037 | 38045 ft | 478 kts | 290° |
| 2026-05-06 09:26 | 50.21416 | -13.73808 | 38054 ft | 479 kts | 290° |
| 2026-05-06 09:27 | 50.23692 | -13.83584 | 38054 ft | 479 kts | 290° |
| 2026-05-06 09:27 | 50.25960 | -13.93368 | 38054 ft | 479 kts | 290° |
| 2026-05-06 09:28 | 50.28208 | -14.03110 | 38054 ft | 479 kts | 290° |
| 2026-05-06 09:28 | 50.30465 | -14.12935 | 38054 ft | 479 kts | 290° |
| 2026-05-06 09:29 | 50.32709 | -14.22749 | 38054 ft | 479 kts | 290° |
| 2026-05-06 09:29 | 50.34946 | -14.32580 | 38054 ft | 479 kts | 290° |
| 2026-05-06 09:30 | 50.37173 | -14.42409 | 38054 ft | 479 kts | 290° |
| 2026-05-06 09:30 | 50.39389 | -14.52239 | 38054 ft | 479 kts | 290° |
| 2026-05-06 09:31 | 50.41585 | -14.62020 | 38054 ft | 479 kts | 290° |
| 2026-05-06 09:31 | 50.43786 | -14.71876 | 38054 ft | 479 kts | 290° |
| 2026-05-06 09:32 | 50.45983 | -14.81756 | 38054 ft | 479 kts | 290° |
| 2026-05-06 09:32 | 50.48170 | -14.91642 | 38054 ft | 479 kts | 290° |
| 2026-05-06 09:33 | 50.50132 | -15.01622 | 38058 ft | 479 kts | 283° |
| 2026-05-06 09:33 | 50.51272 | -15.10144 | 38063 ft | 480 kts | 282° |
| 2026-05-06 09:34 | 50.52724 | -15.22111 | 38063 ft | 480 kts | 281° |
| 2026-05-06 09:34 | 50.53747 | -15.30747 | 38057 ft | 480 kts | 281° |
| 2026-05-06 09:35 | 50.54968 | -15.41063 | 38054 ft | 480 kts | 281° |
| 2026-05-06 09:35 | 50.56180 | -15.51313 | 38054 ft | 480 kts | 281° |
| 2026-05-06 09:36 | 50.57394 | -15.61649 | 38054 ft | 480 kts | 281° |
| 2026-05-06 09:36 | 50.58598 | -15.71975 | 38055 ft | 480 kts | 281° |
| 2026-05-06 09:37 | 50.59793 | -15.82320 | 38054 ft | 480 kts | 281° |
| 2026-05-06 09:37 | 50.60980 | -15.92677 | 38172 ft | 481 kts | 281° |
| 2026-05-06 09:37 | 50.61570 | -15.97852 | 38375 ft | 480 kts | 281° |
| 2026-05-06 09:38 | 50.62156 | -16.03022 | 38573 ft | 479 kts | 281° |
| 2026-05-06 09:38 | 50.62739 | -16.08185 | 38742 ft | 479 kts | 281° |
| 2026-05-06 09:38 | 50.63322 | -16.13362 | 38897 ft | 479 kts | 281° |
| 2026-05-06 09:38 | 50.63901 | -16.18535 | 39031 ft | 480 kts | 281° |
| 2026-05-06 09:39 | 50.64480 | -16.23720 | 39065 ft | 481 kts | 281° |
| 2026-05-06 09:39 | 50.65631 | -16.34105 | 39063 ft | 481 kts | 281° |
| 2026-05-06 09:40 | 50.66774 | -16.44503 | 39063 ft | 481 kts | 281° |
| 2026-05-06 09:40 | 50.68460 | -16.60016 | 39063 ft | 481 kts | 281° |
| 2026-05-06 09:41 | 50.69577 | -16.70400 | 39063 ft | 480 kts | 281° |
| 2026-05-06 09:41 | 50.70685 | -16.80793 | 39063 ft | 480 kts | 281° |
| 2026-05-06 09:42 | 50.71784 | -16.91188 | 39063 ft | 480 kts | 281° |
| 2026-05-06 09:42 | 50.72871 | -17.01572 | 39063 ft | 480 kts | 281° |
| 2026-05-06 09:43 | 50.73951 | -17.11973 | 39063 ft | 480 kts | 280° |
| 2026-05-06 09:43 | 50.75020 | -17.22369 | 39063 ft | 480 kts | 280° |
| 2026-05-06 09:44 | 50.76080 | -17.32765 | 39063 ft | 479 kts | 280° |
| 2026-05-06 09:44 | 50.77130 | -17.43157 | 39063 ft | 479 kts | 280° |
| 2026-05-06 09:45 | 50.78170 | -17.53556 | 39074 ft | 479 kts | 280° |
| 2026-05-06 09:45 | 50.79202 | -17.63961 | 39072 ft | 479 kts | 280° |
| 2026-05-06 09:46 | 50.80217 | -17.74301 | 39071 ft | 479 kts | 280° |
| 2026-05-06 09:46 | 50.81229 | -17.84704 | 39072 ft | 479 kts | 280° |
| 2026-05-06 09:47 | 50.82233 | -17.95122 | 39074 ft | 479 kts | 280° |
| 2026-05-06 09:47 | 50.83227 | -18.05549 | 39071 ft | 478 kts | 280° |
| 2026-05-06 09:48 | 50.84210 | -18.15949 | 39072 ft | 477 kts | 279° |
| 2026-05-06 09:48 | 50.85181 | -18.26338 | 39074 ft | 477 kts | 279° |
| 2026-05-06 09:49 | 50.86144 | -18.36730 | 39073 ft | 477 kts | 279° |
| 2026-05-06 09:49 | 50.87091 | -18.47054 | 39072 ft | 477 kts | 279° |
| 2026-05-06 09:50 | 50.88034 | -18.57447 | 39072 ft | 476 kts | 279° |
| 2026-05-06 09:50 | 50.88968 | -18.67837 | 39072 ft | 476 kts | 279° |
| 2026-05-06 09:51 | 50.89891 | -18.78220 | 39072 ft | 476 kts | 279° |
| 2026-05-06 09:51 | 50.90804 | -18.88592 | 39072 ft | 475 kts | 279° |
| 2026-05-06 09:52 | 50.91706 | -18.98956 | 39072 ft | 475 kts | 279° |
| 2026-05-06 09:52 | 50.92600 | -19.09322 | 39081 ft | 475 kts | 279° |
| 2026-05-06 09:53 | 50.93484 | -19.19690 | 39082 ft | 474 kts | 279° |
| 2026-05-06 09:53 | 50.94357 | -19.30047 | 39082 ft | 474 kts | 279° |
| 2026-05-06 09:54 | 50.95221 | -19.40408 | 39082 ft | 474 kts | 279° |
| 2026-05-06 09:54 | 50.96077 | -19.50776 | 39082 ft | 473 kts | 278° |
| 2026-05-06 09:55 | 50.96921 | -19.61124 | 39082 ft | 473 kts | 278° |
| 2026-05-06 09:55 | 50.97757 | -19.71482 | 39082 ft | 473 kts | 278° |
| 2026-05-06 09:56 | 50.98578 | -19.81771 | 39082 ft | 473 kts | 278° |
| 2026-05-06 09:56 | 50.99394 | -19.92120 | 39082 ft | 472 kts | 278° |
| 2026-05-06 09:57 | 51.00194 | -20.02477 | 39082 ft | 472 kts | 277° |
| 2026-05-06 09:57 | 51.00690 | -20.12873 | 39082 ft | 472 kts | 274° |
| 2026-05-06 09:58 | 51.01034 | -20.23280 | 39082 ft | 472 kts | 274° |
| 2026-05-06 09:58 | 51.01404 | -20.33677 | 39094 ft | 471 kts | 275° |
| 2026-05-06 09:59 | 51.01803 | -20.44069 | 39101 ft | 471 kts | 275° |
| 2026-05-06 09:59 | 51.02207 | -20.54467 | 39100 ft | 471 kts | 275° |
| 2026-05-06 10:00 | 51.02601 | -20.64862 | 39110 ft | 471 kts | 275° |
| 2026-05-06 10:00 | 51.02984 | -20.75248 | 39110 ft | 471 kts | 274° |
| 2026-05-06 10:01 | 51.03357 | -20.85641 | 39109 ft | 471 kts | 274° |
| 2026-05-06 10:01 | 51.03718 | -20.95975 | 39109 ft | 471 kts | 274° |
| 2026-05-06 10:02 | 51.04072 | -21.06367 | 39110 ft | 471 kts | 274° |
| 2026-05-06 10:02 | 51.04417 | -21.16760 | 39110 ft | 471 kts | 274° |
| 2026-05-06 10:03 | 51.04753 | -21.27150 | 39109 ft | 471 kts | 274° |
| 2026-05-06 10:03 | 51.05079 | -21.37542 | 39110 ft | 471 kts | 274° |
| 2026-05-06 10:04 | 51.05397 | -21.47938 | 39110 ft | 471 kts | 274° |
| 2026-05-06 10:04 | 51.05704 | -21.58325 | 39129 ft | 470 kts | 274° |
| 2026-05-06 10:05 | 51.06003 | -21.68716 | 39142 ft | 470 kts | 274° |
| 2026-05-06 10:05 | 51.06291 | -21.79042 | 39137 ft | 470 kts | 274° |
| 2026-05-06 10:06 | 51.06571 | -21.89429 | 39134 ft | 470 kts | 273° |
| 2026-05-06 10:06 | 51.06842 | -21.99816 | 39163 ft | 470 kts | 273° |
| 2026-05-06 10:07 | 51.07103 | -22.10206 | 39195 ft | 470 kts | 273° |
| 2026-05-06 10:07 | 51.07356 | -22.20595 | 39190 ft | 470 kts | 273° |
| 2026-05-06 10:08 | 51.07599 | -22.30990 | 39188 ft | 470 kts | 273° |
| 2026-05-06 10:08 | 51.07833 | -22.41393 | 39192 ft | 470 kts | 272° |
| 2026-05-06 10:09 | 51.08058 | -22.51792 | 39191 ft | 470 kts | 272° |
| 2026-05-06 10:09 | 51.08274 | -22.62189 | 39196 ft | 470 kts | 272° |
| 2026-05-06 10:10 | 51.08479 | -22.72519 | 39215 ft | 471 kts | 272° |
| 2026-05-06 10:10 | 51.08677 | -22.82940 | 39214 ft | 471 kts | 272° |
| 2026-05-06 10:11 | 51.08865 | -22.93352 | 39213 ft | 471 kts | 272° |
| 2026-05-06 10:11 | 51.09044 | -23.03758 | 39210 ft | 471 kts | 272° |
| 2026-05-06 10:12 | 51.09214 | -23.14179 | 39208 ft | 471 kts | 272° |
| 2026-05-06 10:12 | 51.09374 | -23.24605 | 39208 ft | 471 kts | 272° |
| 2026-05-06 10:13 | 51.09526 | -23.35022 | 39208 ft | 471 kts | 272° |
| 2026-05-06 10:13 | 51.09667 | -23.45387 | 39208 ft | 471 kts | 271° |
| 2026-05-06 10:14 | 51.09800 | -23.55823 | 39218 ft | 472 kts | 271° |
| 2026-05-06 10:14 | 51.09923 | -23.66250 | 39237 ft | 472 kts | 271° |
| 2026-05-06 10:15 | 51.10038 | -23.76685 | 39239 ft | 472 kts | 271° |
| 2026-05-06 10:15 | 51.10143 | -23.87128 | 39239 ft | 472 kts | 271° |
| 2026-05-06 10:16 | 51.10239 | -23.97569 | 39239 ft | 472 kts | 271° |
| 2026-05-06 10:16 | 51.10325 | -24.08008 | 39239 ft | 472 kts | 271° |
| 2026-05-06 10:17 | 51.10403 | -24.18456 | 39238 ft | 472 kts | 271° |
| 2026-05-06 10:17 | 51.10471 | -24.28910 | 39238 ft | 472 kts | 271° |
| 2026-05-06 10:18 | 51.10529 | -24.39285 | 39239 ft | 472 kts | 270° |
| 2026-05-06 10:18 | 51.10578 | -24.49725 | 39238 ft | 472 kts | 270° |
| 2026-05-06 10:19 | 51.10619 | -24.60167 | 39247 ft | 472 kts | 270° |
| 2026-05-06 10:19 | 51.10649 | -24.70612 | 39294 ft | 472 kts | 270° |
| 2026-05-06 10:20 | 51.10671 | -24.81048 | 39292 ft | 472 kts | 270° |
| 2026-05-06 10:20 | 51.10683 | -24.91497 | 39293 ft | 472 kts | 270° |
| 2026-05-06 10:21 | 51.10686 | -25.01937 | 39294 ft | 472 kts | 270° |
| 2026-05-06 10:21 | 51.10681 | -25.10608 | 39294 ft | 472 kts | 270° |
| 2026-05-06 10:22 | 51.10667 | -25.21057 | 39300 ft | 472 kts | 270° |
| 2026-05-06 10:22 | 51.10644 | -25.31495 | 39348 ft | 472 kts | 270° |
| 2026-05-06 10:23 | 51.10611 | -25.41939 | 39349 ft | 472 kts | 270° |
| 2026-05-06 10:23 | 51.10569 | -25.52375 | 39348 ft | 472 kts | 270° |
| 2026-05-06 10:24 | 51.10518 | -25.62818 | 39348 ft | 472 kts | 269° |
| 2026-05-06 10:24 | 51.10457 | -25.73196 | 39355 ft | 472 kts | 269° |
| 2026-05-06 10:25 | 51.10388 | -25.83633 | 39348 ft | 472 kts | 269° |
| 2026-05-06 10:25 | 51.10308 | -25.94080 | 39348 ft | 472 kts | 269° |
| 2026-05-06 10:26 | 51.10220 | -26.04528 | 39348 ft | 472 kts | 269° |
| 2026-05-06 10:26 | 51.10122 | -26.14982 | 39349 ft | 472 kts | 269° |
| 2026-05-06 10:27 | 51.10015 | -26.25425 | 39348 ft | 472 kts | 269° |
| 2026-05-06 10:27 | 51.09898 | -26.35874 | 39348 ft | 472 kts | 269° |
| 2026-05-06 10:28 | 51.09773 | -26.46318 | 39349 ft | 472 kts | 269° |
| 2026-05-06 10:28 | 51.09638 | -26.56755 | 39348 ft | 472 kts | 269° |
| 2026-05-06 10:29 | 51.09494 | -26.67132 | 39348 ft | 472 kts | 269° |
| 2026-05-06 10:29 | 51.09341 | -26.77571 | 39348 ft | 472 kts | 269° |
| 2026-05-06 10:30 | 51.09178 | -26.88022 | 39348 ft | 472 kts | 268° |
| 2026-05-06 10:30 | 51.09005 | -26.98462 | 39348 ft | 472 kts | 268° |
| 2026-05-06 10:31 | 51.08824 | -27.08912 | 39348 ft | 472 kts | 268° |
| 2026-05-06 10:31 | 51.08633 | -27.19358 | 39340 ft | 472 kts | 268° |
| 2026-05-06 10:32 | 51.08433 | -27.29798 | 39342 ft | 472 kts | 268° |
| 2026-05-06 10:32 | 51.08223 | -27.40241 | 39339 ft | 473 kts | 268° |
| 2026-05-06 10:33 | 51.08004 | -27.50688 | 39342 ft | 473 kts | 268° |
| 2026-05-06 10:33 | 51.07776 | -27.61141 | 39340 ft | 473 kts | 268° |
| 2026-05-06 10:34 | 51.07540 | -27.71523 | 39338 ft | 473 kts | 268° |
| 2026-05-06 10:34 | 51.07293 | -27.81965 | 39334 ft | 473 kts | 268° |
| 2026-05-06 10:35 | 51.07037 | -27.92425 | 39336 ft | 473 kts | 268° |
| 2026-05-06 10:35 | 51.06771 | -28.02877 | 39345 ft | 473 kts | 268° |
| 2026-05-06 10:36 | 51.06496 | -28.13333 | 39349 ft | 474 kts | 267° |
| 2026-05-06 10:36 | 51.06211 | -28.23807 | 39349 ft | 474 kts | 267° |
| 2026-05-06 10:37 | 51.05916 | -28.34291 | 39348 ft | 474 kts | 267° |
| 2026-05-06 10:37 | 51.05613 | -28.44751 | 39348 ft | 474 kts | 267° |
| 2026-05-06 10:38 | 51.05300 | -28.55205 | 39349 ft | 474 kts | 267° |
| 2026-05-06 10:38 | 51.04978 | -28.65670 | 39349 ft | 474 kts | 267° |
| 2026-05-06 10:39 | 51.04648 | -28.76067 | 39348 ft | 474 kts | 267° |
| 2026-05-06 10:39 | 51.04308 | -28.86527 | 39348 ft | 474 kts | 267° |
| 2026-05-06 10:40 | 51.03957 | -28.96985 | 39348 ft | 474 kts | 267° |
| 2026-05-06 10:40 | 51.03598 | -29.07444 | 39348 ft | 474 kts | 266° |
| 2026-05-06 10:41 | 51.03229 | -29.17894 | 39349 ft | 474 kts | 266° |
| 2026-05-06 10:41 | 51.02851 | -29.28345 | 39347 ft | 474 kts | 266° |
| 2026-05-06 10:42 | 51.02463 | -29.38802 | 39340 ft | 474 kts | 266° |
| 2026-05-06 10:42 | 51.02066 | -29.49267 | 39336 ft | 474 kts | 266° |
| 2026-05-06 10:43 | 51.01659 | -29.59733 | 39336 ft | 474 kts | 266° |
| 2026-05-06 10:44 | 51.01032 | -29.75416 | 39340 ft | 474 kts | 266° |
| 2026-05-06 10:44 | 51.00605 | -29.85799 | 39339 ft | 474 kts | 266° |
| 2026-05-06 10:45 | 51.00166 | -29.96243 | 39339 ft | 474 kts | 266° |
| 2026-05-06 10:45 | 50.99809 | -30.06701 | 39339 ft | 474 kts | 269° |
| 2026-05-06 10:46 | 50.99767 | -30.17150 | 39336 ft | 475 kts | 270° |
| 2026-05-06 10:46 | 50.99754 | -30.27645 | 39336 ft | 475 kts | 269° |
| 2026-05-06 10:47 | 50.99683 | -30.38122 | 39342 ft | 475 kts | 269° |
| 2026-05-06 10:47 | 50.99575 | -30.48607 | 39337 ft | 475 kts | 269° |
| 2026-05-06 10:48 | 50.99451 | -30.59021 | 39336 ft | 475 kts | 269° |
| 2026-05-06 10:48 | 50.99319 | -30.69505 | 39336 ft | 475 kts | 269° |
| 2026-05-06 10:49 | 50.99179 | -30.79999 | 39339 ft | 475 kts | 269° |
| 2026-05-06 10:49 | 50.99030 | -30.90492 | 39342 ft | 475 kts | 268° |
| 2026-05-06 10:50 | 50.98871 | -31.00982 | 39336 ft | 475 kts | 268° |
| 2026-05-06 10:50 | 50.98703 | -31.11480 | 39340 ft | 475 kts | 268° |
| 2026-05-06 10:51 | 50.98526 | -31.21975 | 39317 ft | 475 kts | 268° |
| 2026-05-06 10:51 | 50.98339 | -31.32469 | 39312 ft | 476 kts | 268° |
| 2026-05-06 10:52 | 50.98143 | -31.42969 | 39312 ft | 476 kts | 268° |
| 2026-05-06 10:52 | 50.97937 | -31.53465 | 39311 ft | 476 kts | 268° |
| 2026-05-06 10:53 | 50.97723 | -31.63901 | 39312 ft | 476 kts | 268° |
| 2026-05-06 10:53 | 50.97499 | -31.74397 | 39312 ft | 476 kts | 268° |
| 2026-05-06 10:54 | 50.97265 | -31.84893 | 39312 ft | 476 kts | 268° |
| 2026-05-06 10:54 | 50.97021 | -31.95388 | 39312 ft | 476 kts | 268° |
| 2026-05-06 10:55 | 50.96768 | -32.05885 | 39312 ft | 476 kts | 268° |
| 2026-05-06 10:55 | 50.96506 | -32.16382 | 39312 ft | 476 kts | 267° |
| 2026-05-06 10:56 | 50.96234 | -32.26884 | 39312 ft | 476 kts | 267° |
| 2026-05-06 10:56 | 50.95953 | -32.37388 | 39312 ft | 476 kts | 267° |
| 2026-05-06 10:57 | 50.95662 | -32.47892 | 39312 ft | 476 kts | 267° |
| 2026-05-06 10:57 | 50.95362 | -32.58391 | 39312 ft | 476 kts | 267° |
| 2026-05-06 10:58 | 50.95055 | -32.68826 | 39312 ft | 477 kts | 267° |
| 2026-05-06 10:58 | 50.94736 | -32.79326 | 39312 ft | 477 kts | 267° |
| 2026-05-06 10:59 | 50.94407 | -32.89835 | 39312 ft | 477 kts | 267° |
| 2026-05-06 10:59 | 50.94068 | -33.00355 | 39312 ft | 477 kts | 267° |
| 2026-05-06 11:00 | 50.93720 | -33.10875 | 39313 ft | 477 kts | 267° |
| 2026-05-06 11:00 | 50.93363 | -33.21398 | 39312 ft | 478 kts | 267° |
| 2026-05-06 11:01 | 50.92996 | -33.31909 | 39313 ft | 478 kts | 266° |
| 2026-05-06 11:01 | 50.92619 | -33.42431 | 39305 ft | 478 kts | 266° |
| 2026-05-06 11:02 | 50.92236 | -33.52877 | 39304 ft | 478 kts | 266° |
| 2026-05-06 11:02 | 50.91840 | -33.63393 | 39303 ft | 478 kts | 266° |
| 2026-05-06 11:03 | 50.91436 | -33.73900 | 39303 ft | 478 kts | 266° |
| 2026-05-06 11:03 | 50.91021 | -33.84416 | 39302 ft | 478 kts | 266° |
| 2026-05-06 11:04 | 50.90598 | -33.94930 | 39302 ft | 478 kts | 266° |
| 2026-05-06 11:04 | 50.90164 | -34.05443 | 39303 ft | 478 kts | 266° |
| 2026-05-06 11:05 | 50.89721 | -34.15958 | 39302 ft | 478 kts | 266° |
| 2026-05-06 11:05 | 50.89270 | -34.26455 | 39304 ft | 478 kts | 266° |
| 2026-05-06 11:06 | 50.88810 | -34.36921 | 39304 ft | 478 kts | 266° |
| 2026-05-06 11:06 | 50.88339 | -34.47421 | 39301 ft | 478 kts | 266° |
| 2026-05-06 11:07 | 50.87859 | -34.57920 | 39303 ft | 478 kts | 266° |
| 2026-05-06 11:07 | 50.87368 | -34.68436 | 39303 ft | 478 kts | 266° |
| 2026-05-06 11:08 | 50.86872 | -34.78857 | 39260 ft | 477 kts | 266° |
| 2026-05-06 11:08 | 50.86365 | -34.89332 | 39254 ft | 477 kts | 266° |
| 2026-05-06 11:09 | 50.85847 | -34.99816 | 39256 ft | 477 kts | 265° |
| 2026-05-06 11:09 | 50.85321 | -35.10277 | 39257 ft | 477 kts | 265° |
| 2026-05-06 11:10 | 50.84877 | -35.18978 | 39257 ft | 477 kts | 265° |
| 2026-05-06 11:10 | 50.84333 | -35.29443 | 39259 ft | 477 kts | 265° |
| 2026-05-06 11:11 | 50.83780 | -35.39915 | 39259 ft | 477 kts | 265° |
| 2026-05-06 11:11 | 50.83218 | -35.50368 | 39259 ft | 477 kts | 265° |
| 2026-05-06 11:12 | 50.82647 | -35.60809 | 39253 ft | 476 kts | 265° |
| 2026-05-06 11:12 | 50.82071 | -35.71182 | 39255 ft | 476 kts | 265° |
| 2026-05-06 11:13 | 50.81482 | -35.81613 | 39253 ft | 476 kts | 265° |
| 2026-05-06 11:13 | 50.80884 | -35.92045 | 39257 ft | 476 kts | 265° |
| 2026-05-06 11:14 | 50.80277 | -36.02459 | 39258 ft | 476 kts | 265° |
| 2026-05-06 11:14 | 50.79661 | -36.12870 | 39257 ft | 475 kts | 265° |
| 2026-05-06 11:15 | 50.79036 | -36.23278 | 39253 ft | 475 kts | 265° |
| 2026-05-06 11:15 | 50.78405 | -36.33615 | 39257 ft | 475 kts | 265° |
| 2026-05-06 11:16 | 50.77762 | -36.44012 | 39260 ft | 475 kts | 264° |
| 2026-05-06 11:16 | 50.77108 | -36.54415 | 39254 ft | 475 kts | 264° |
| 2026-05-06 11:17 | 50.76446 | -36.64808 | 39255 ft | 475 kts | 264° |
| 2026-05-06 11:17 | 50.75776 | -36.75190 | 39258 ft | 475 kts | 264° |
| 2026-05-06 11:18 | 50.75095 | -36.85576 | 39255 ft | 475 kts | 264° |
| 2026-05-06 11:18 | 50.74406 | -36.95959 | 39260 ft | 475 kts | 264° |
| 2026-05-06 11:19 | 50.73707 | -37.06331 | 39253 ft | 475 kts | 264° |
| 2026-05-06 11:19 | 50.73004 | -37.16642 | 39261 ft | 475 kts | 264° |
| 2026-05-06 11:20 | 50.72286 | -37.27020 | 39294 ft | 475 kts | 264° |
| 2026-05-06 11:20 | 50.71560 | -37.37382 | 39295 ft | 475 kts | 264° |
| 2026-05-06 11:21 | 50.70825 | -37.47744 | 39294 ft | 475 kts | 264° |
| 2026-05-06 11:21 | 50.70082 | -37.58092 | 39295 ft | 475 kts | 264° |
| 2026-05-06 11:22 | 50.69328 | -37.68446 | 39294 ft | 475 kts | 264° |
| 2026-05-06 11:22 | 50.68565 | -37.78796 | 39292 ft | 475 kts | 263° |
| 2026-05-06 11:23 | 50.67794 | -37.89135 | 39293 ft | 475 kts | 263° |
| 2026-05-06 11:23 | 50.67014 | -37.99471 | 39293 ft | 474 kts | 263° |
| 2026-05-06 11:24 | 50.66225 | -38.09796 | 39292 ft | 474 kts | 263° |
| 2026-05-06 11:24 | 50.65433 | -38.20041 | 39292 ft | 474 kts | 263° |
| 2026-05-06 11:25 | 50.64627 | -38.30349 | 39292 ft | 474 kts | 263° |
| 2026-05-06 11:25 | 50.63811 | -38.40661 | 39293 ft | 474 kts | 263° |
| 2026-05-06 11:26 | 50.62987 | -38.50954 | 39295 ft | 474 kts | 263° |
| 2026-05-06 11:26 | 50.62152 | -38.61264 | 39293 ft | 474 kts | 263° |
| 2026-05-06 11:27 | 50.61309 | -38.71563 | 39295 ft | 474 kts | 263° |
| 2026-05-06 11:27 | 50.60463 | -38.81785 | 39291 ft | 474 kts | 263° |
| 2026-05-06 11:28 | 50.59602 | -38.92071 | 39286 ft | 474 kts | 263° |
| 2026-05-06 11:28 | 50.58732 | -39.02364 | 39284 ft | 474 kts | 263° |
| 2026-05-06 11:29 | 50.57852 | -39.12650 | 39285 ft | 474 kts | 263° |
| 2026-05-06 11:29 | 50.56964 | -39.22927 | 39286 ft | 474 kts | 263° |
| 2026-05-06 11:30 | 50.56067 | -39.33199 | 39287 ft | 474 kts | 263° |
| 2026-05-06 11:30 | 50.55167 | -39.43399 | 39284 ft | 474 kts | 263° |
| 2026-05-06 11:31 | 50.54252 | -39.53662 | 39281 ft | 474 kts | 263° |
| 2026-05-06 11:31 | 50.53329 | -39.63917 | 39286 ft | 473 kts | 263° |
| 2026-05-06 11:32 | 50.52397 | -39.74162 | 39292 ft | 473 kts | 262° |
| 2026-05-06 11:32 | 50.51456 | -39.84406 | 39285 ft | 473 kts | 262° |
| 2026-05-06 11:33 | 50.50506 | -39.94638 | 39278 ft | 473 kts | 262° |
| 2026-05-06 11:33 | 50.49061 | -40.04713 | 39282 ft | 474 kts | 255° |
| 2026-05-06 11:34 | 50.47180 | -40.14558 | 39285 ft | 474 kts | 254° |
| 2026-05-06 11:34 | 50.45210 | -40.24424 | 39278 ft | 474 kts | 253° |
| 2026-05-06 11:35 | 50.43232 | -40.34284 | 39281 ft | 474 kts | 253° |
| 2026-05-06 11:35 | 50.41258 | -40.44138 | 39276 ft | 474 kts | 253° |
| 2026-05-06 11:36 | 50.39279 | -40.53987 | 39270 ft | 474 kts | 253° |
| 2026-05-06 11:36 | 50.37294 | -40.63827 | 39270 ft | 474 kts | 253° |
| 2026-05-06 11:37 | 50.35299 | -40.73659 | 39278 ft | 474 kts | 253° |
| 2026-05-06 11:37 | 50.33297 | -40.83477 | 39275 ft | 473 kts | 253° |
| 2026-05-06 11:38 | 50.31288 | -40.93283 | 39274 ft | 473 kts | 253° |
| 2026-05-06 11:38 | 50.29270 | -41.03081 | 39275 ft | 473 kts | 253° |
| 2026-05-06 11:39 | 50.27244 | -41.12871 | 39281 ft | 473 kts | 253° |
| 2026-05-06 11:39 | 50.25212 | -41.22642 | 39269 ft | 473 kts | 253° |
| 2026-05-06 11:40 | 50.23173 | -41.32399 | 39276 ft | 472 kts | 253° |
| 2026-05-06 11:40 | 50.21125 | -41.42150 | 39271 ft | 472 kts | 253° |
| 2026-05-06 11:41 | 50.19084 | -41.51826 | 39264 ft | 472 kts | 252° |
| 2026-05-06 11:41 | 50.17024 | -41.61541 | 39265 ft | 472 kts | 252° |
| 2026-05-06 11:42 | 50.14956 | -41.71245 | 39269 ft | 471 kts | 252° |
| 2026-05-06 11:42 | 50.12882 | -41.80934 | 39267 ft | 471 kts | 252° |
| 2026-05-06 11:43 | 50.10803 | -41.90599 | 39266 ft | 471 kts | 252° |
| 2026-05-06 11:43 | 50.08716 | -42.00260 | 39262 ft | 471 kts | 252° |
| 2026-05-06 11:44 | 50.05569 | -42.14738 | 39271 ft | 470 kts | 252° |
| 2026-05-06 11:44 | 50.03460 | -42.24380 | 39265 ft | 470 kts | 252° |
| 2026-05-06 11:45 | 50.01343 | -42.34019 | 39266 ft | 471 kts | 252° |
| 2026-05-06 11:45 | 49.99220 | -42.43641 | 39269 ft | 471 kts | 252° |
| 2026-05-06 11:46 | 49.97102 | -42.53190 | 39256 ft | 470 kts | 252° |
| 2026-05-06 11:46 | 49.94965 | -42.62787 | 39255 ft | 470 kts | 252° |
| 2026-05-06 11:47 | 49.92821 | -42.72368 | 39254 ft | 470 kts | 252° |
| 2026-05-06 11:47 | 49.90671 | -42.81936 | 39261 ft | 470 kts | 252° |
| 2026-05-06 11:48 | 49.88510 | -42.91503 | 39260 ft | 470 kts | 252° |
| 2026-05-06 11:48 | 49.86344 | -43.01053 | 39258 ft | 469 kts | 252° |
| 2026-05-06 11:49 | 49.84171 | -43.10590 | 39257 ft | 469 kts | 252° |
| 2026-05-06 11:49 | 49.81989 | -43.20123 | 39255 ft | 469 kts | 251° |
| 2026-05-06 11:50 | 49.79814 | -43.29584 | 39259 ft | 469 kts | 251° |
| 2026-05-06 11:50 | 49.77618 | -43.39098 | 39254 ft | 469 kts | 251° |
| 2026-05-06 11:51 | 49.75413 | -43.48603 | 39248 ft | 469 kts | 251° |
| 2026-05-06 11:51 | 49.73201 | -43.58095 | 39248 ft | 469 kts | 251° |
| 2026-05-06 11:52 | 49.70980 | -43.67587 | 39247 ft | 469 kts | 251° |
| 2026-05-06 11:52 | 49.68752 | -43.77067 | 39248 ft | 469 kts | 251° |
| 2026-05-06 11:53 | 49.66529 | -43.86484 | 39247 ft | 469 kts | 251° |
| 2026-05-06 11:53 | 49.64284 | -43.95953 | 39248 ft | 469 kts | 251° |
| 2026-05-06 11:54 | 49.62031 | -44.05412 | 39248 ft | 469 kts | 251° |
| 2026-05-06 11:54 | 49.59774 | -44.14850 | 39248 ft | 469 kts | 251° |
| 2026-05-06 11:55 | 49.57510 | -44.24277 | 39248 ft | 469 kts | 251° |
| 2026-05-06 11:55 | 49.55236 | -44.33703 | 39245 ft | 469 kts | 251° |
| 2026-05-06 11:56 | 49.52959 | -44.43098 | 39238 ft | 468 kts | 251° |
| 2026-05-06 11:56 | 49.50676 | -44.52482 | 39237 ft | 468 kts | 251° |
| 2026-05-06 11:57 | 49.48401 | -44.61795 | 39175 ft | 467 kts | 251° |
| 2026-05-06 11:57 | 49.46108 | -44.71137 | 39103 ft | 467 kts | 251° |
| 2026-05-06 11:58 | 49.43811 | -44.80461 | 39100 ft | 466 kts | 251° |
| 2026-05-06 11:58 | 49.41506 | -44.89776 | 39101 ft | 466 kts | 251° |
| 2026-05-06 11:59 | 49.39585 | -44.97508 | 39100 ft | 466 kts | 251° |
| 2026-05-06 11:59 | 49.37268 | -45.06803 | 39100 ft | 466 kts | 251° |
| 2026-05-06 12:00 | 49.34947 | -45.16069 | 39100 ft | 465 kts | 250° |
| 2026-05-06 12:00 | 49.32621 | -45.25322 | 39101 ft | 465 kts | 250° |
| 2026-05-06 12:01 | 49.30287 | -45.34569 | 39150 ft | 465 kts | 250° |
| 2026-05-06 12:01 | 49.27945 | -45.43808 | 39165 ft | 465 kts | 250° |
| 2026-05-06 12:02 | 49.25598 | -45.53029 | 39156 ft | 465 kts | 250° |
| 2026-05-06 12:02 | 49.23258 | -45.62181 | 39156 ft | 463 kts | 251° |
| 2026-05-06 12:03 | 49.20896 | -45.71387 | 39156 ft | 461 kts | 251° |
| 2026-05-06 12:03 | 49.18559 | -45.80457 | 39157 ft | 461 kts | 251° |
| 2026-05-06 12:04 | 49.16203 | -45.89569 | 39153 ft | 461 kts | 251° |
| 2026-05-06 12:04 | 49.13836 | -45.98684 | 39153 ft | 461 kts | 250° |
| 2026-05-06 12:05 | 49.11464 | -46.07780 | 39156 ft | 460 kts | 250° |
| 2026-05-06 12:05 | 49.09092 | -46.16842 | 39158 ft | 460 kts | 250° |
| 2026-05-06 12:06 | 49.06729 | -46.25834 | 39155 ft | 459 kts | 250° |
| 2026-05-06 12:06 | 49.04346 | -46.34866 | 39156 ft | 459 kts | 250° |
| 2026-05-06 12:07 | 49.01959 | -46.43879 | 39156 ft | 459 kts | 250° |
| 2026-05-06 12:07 | 48.99563 | -46.52889 | 39156 ft | 458 kts | 250° |
| 2026-05-06 12:08 | 48.97165 | -46.61875 | 39158 ft | 458 kts | 250° |
| 2026-05-06 12:08 | 48.94756 | -46.70863 | 39157 ft | 458 kts | 250° |
| 2026-05-06 12:09 | 48.92345 | -46.79825 | 39154 ft | 458 kts | 250° |
| 2026-05-06 12:09 | 48.89944 | -46.88716 | 39152 ft | 458 kts | 250° |
| 2026-05-06 12:10 | 48.87520 | -46.97662 | 39158 ft | 457 kts | 250° |
| 2026-05-06 12:10 | 48.85091 | -47.06588 | 39158 ft | 457 kts | 250° |
| 2026-05-06 12:11 | 48.82652 | -47.15515 | 39157 ft | 457 kts | 250° |
| 2026-05-06 12:11 | 48.80214 | -47.24408 | 39157 ft | 456 kts | 249° |
| 2026-05-06 12:12 | 48.77787 | -47.33228 | 39147 ft | 456 kts | 249° |
| 2026-05-06 12:12 | 48.75336 | -47.42101 | 39144 ft | 456 kts | 249° |
| 2026-05-06 12:13 | 48.72882 | -47.50951 | 39148 ft | 456 kts | 249° |
| 2026-05-06 12:13 | 48.70421 | -47.59796 | 39145 ft | 456 kts | 249° |
| 2026-05-06 12:14 | 48.67953 | -47.68629 | 39147 ft | 455 kts | 249° |
| 2026-05-06 12:14 | 48.65480 | -47.77448 | 39147 ft | 455 kts | 249° |
| 2026-05-06 12:15 | 48.63001 | -47.86259 | 39145 ft | 455 kts | 249° |
| 2026-05-06 12:15 | 48.60514 | -47.95061 | 39144 ft | 455 kts | 249° |
| 2026-05-06 12:16 | 48.58019 | -48.03862 | 39148 ft | 455 kts | 249° |
| 2026-05-06 12:16 | 48.55523 | -48.12633 | 39147 ft | 454 kts | 249° |
| 2026-05-06 12:17 | 48.53022 | -48.21391 | 39148 ft | 454 kts | 249° |
| 2026-05-06 12:17 | 48.50514 | -48.30143 | 39147 ft | 454 kts | 249° |
| 2026-05-06 12:18 | 48.48019 | -48.38816 | 39147 ft | 454 kts | 249° |
| 2026-05-06 12:18 | 48.45499 | -48.47544 | 39141 ft | 454 kts | 248° |
| 2026-05-06 12:19 | 48.42975 | -48.56255 | 39145 ft | 454 kts | 248° |
| 2026-05-06 12:19 | 48.40442 | -48.64965 | 39149 ft | 453 kts | 248° |
| 2026-05-06 12:20 | 48.37907 | -48.73651 | 39150 ft | 453 kts | 248° |
| 2026-05-06 12:20 | 48.35370 | -48.82315 | 39144 ft | 453 kts | 248° |
| 2026-05-06 12:21 | 48.32827 | -48.90968 | 39146 ft | 452 kts | 248° |
| 2026-05-06 12:21 | 48.30278 | -48.99610 | 39145 ft | 452 kts | 248° |
| 2026-05-06 12:22 | 48.27743 | -49.08171 | 39145 ft | 451 kts | 248° |
| 2026-05-06 12:22 | 48.25186 | -49.16781 | 39151 ft | 451 kts | 248° |
| 2026-05-06 12:23 | 48.22624 | -49.25376 | 39144 ft | 451 kts | 248° |
| 2026-05-06 12:23 | 48.20058 | -49.33952 | 39144 ft | 450 kts | 248° |
| 2026-05-06 12:24 | 48.17492 | -49.42503 | 39148 ft | 450 kts | 248° |
| 2026-05-06 12:24 | 48.14920 | -49.51042 | 39149 ft | 449 kts | 248° |
| 2026-05-06 12:25 | 48.12343 | -49.59566 | 39146 ft | 449 kts | 248° |
| 2026-05-06 12:25 | 48.09762 | -49.68076 | 39141 ft | 449 kts | 247° |
| 2026-05-06 12:26 | 48.07176 | -49.76573 | 39152 ft | 449 kts | 247° |
| 2026-05-06 12:26 | 48.04586 | -49.85056 | 39152 ft | 448 kts | 247° |
| 2026-05-06 12:27 | 48.01990 | -49.93527 | 39154 ft | 448 kts | 247° |
| 2026-05-06 12:27 | 47.99550 | -50.02026 | 39157 ft | 447 kts | 251° |
| 2026-05-06 12:28 | 47.97407 | -50.10738 | 39158 ft | 447 kts | 252° |
| 2026-05-06 12:28 | 47.95310 | -50.19478 | 39155 ft | 447 kts | 252° |
| 2026-05-06 12:29 | 47.93214 | -50.28204 | 39157 ft | 447 kts | 252° |
| 2026-05-06 12:29 | 47.91105 | -50.36917 | 39154 ft | 447 kts | 252° |
| 2026-05-06 12:30 | 47.88984 | -50.45632 | 39156 ft | 447 kts | 251° |
| 2026-05-06 12:30 | 47.86853 | -50.54345 | 39156 ft | 447 kts | 251° |
| 2026-05-06 12:31 | 47.84717 | -50.63050 | 39153 ft | 448 kts | 251° |
| 2026-05-06 12:31 | 47.82572 | -50.71755 | 39155 ft | 448 kts | 251° |
| 2026-05-06 12:32 | 47.80421 | -50.80453 | 39165 ft | 448 kts | 251° |
| 2026-05-06 12:32 | 47.78274 | -50.89101 | 39165 ft | 448 kts | 251° |
| 2026-05-06 12:33 | 47.76108 | -50.97790 | 39164 ft | 449 kts | 251° |
| 2026-05-06 12:33 | 47.73931 | -51.06492 | 39165 ft | 449 kts | 251° |
| 2026-05-06 12:34 | 47.71748 | -51.15182 | 39165 ft | 449 kts | 251° |